createdAt,value
2017-05-05T00:00:04.575Z,929.36
2017-05-05T00:00:17.683Z,929.36
2017-05-05T00:00:30.314Z,929.36
2017-05-05T00:00:43.544Z,929.37
2017-05-05T00:00:56.651Z,929.38
2017-05-05T00:01:09.261Z,929.34
2017-05-05T00:01:22.122Z,929.36
2017-05-05T00:01:35.498Z,929.36
2017-05-05T00:01:48.633Z,929.34
2017-05-05T00:02:01.956Z,929.37
2017-05-05T00:02:14.715Z,929.33
2017-05-05T00:02:27.885Z,929.35
2017-05-05T00:02:41.078Z,929.33
2017-05-05T00:02:54.220Z,929.33
2017-05-05T00:03:07.391Z,929.35
2017-05-05T00:03:20.542Z,929.34
2017-05-05T00:03:33.727Z,929.33
2017-05-05T00:03:46.856Z,929.31
2017-05-05T00:03:58.975Z,929.33
2017-05-05T00:04:11.657Z,929.33
2017-05-05T00:04:24.828Z,929.35
2017-05-05T00:04:37.948Z,929.32
2017-05-05T00:04:50.542Z,929.33
2017-05-05T00:05:03.714Z,929.34
2017-05-05T00:05:16.889Z,929.33
2017-05-05T00:05:29.992Z,929.33
2017-05-05T00:05:44.539Z,929.3
2017-05-05T00:05:57.689Z,929.33
2017-05-05T00:06:10.302Z,929.35
2017-05-05T00:06:22.916Z,929.32
2017-05-05T00:06:35.122Z,929.34
2017-05-05T00:06:48.248Z,929.33
2017-05-05T00:07:01.646Z,929.36
2017-05-05T00:07:14.794Z,929.34
2017-05-05T00:07:27.934Z,929.32
2017-05-05T00:07:41.127Z,929.34
2017-05-05T00:07:53.746Z,929.32
2017-05-05T00:08:06.930Z,929.33
2017-05-05T00:08:19.573Z,929.3
2017-05-05T00:08:32.761Z,929.36
2017-05-05T00:08:45.443Z,929.34
2017-05-05T00:08:58.094Z,929.34
2017-05-05T00:09:11.217Z,929.38
2017-05-05T00:09:23.933Z,929.34
2017-05-05T00:09:37.033Z,929.36
2017-05-05T00:09:50.201Z,929.34
2017-05-05T00:10:03.383Z,929.38
2017-05-05T00:10:16.025Z,929.35
2017-05-05T00:10:29.191Z,929.37
2017-05-05T00:10:41.798Z,929.38
2017-05-05T00:10:54.912Z,929.37
2017-05-05T00:11:07.543Z,929.35
2017-05-05T00:11:20.754Z,929.37
2017-05-05T00:11:33.422Z,929.37
2017-05-05T00:11:46.579Z,929.36
2017-05-05T00:11:59.699Z,929.34
2017-05-05T00:12:12.844Z,929.39
2017-05-05T00:12:25.989Z,929.41
2017-05-05T00:12:39.149Z,929.37
2017-05-05T00:12:52.298Z,929.38
2017-05-05T00:13:05.492Z,929.36
2017-05-05T00:13:18.156Z,929.37
2017-05-05T00:13:31.332Z,929.4
2017-05-05T00:13:43.997Z,929.37
2017-05-05T00:13:57.460Z,929.36
2017-05-05T00:14:10.086Z,929.42
2017-05-05T00:14:23.282Z,929.37
2017-05-05T00:14:36.412Z,929.36
2017-05-05T00:14:49.565Z,929.4
2017-05-05T00:15:02.699Z,929.38
2017-05-05T00:15:15.882Z,929.4
2017-05-05T00:15:29.080Z,929.41
2017-05-05T00:15:42.203Z,929.4
2017-05-05T00:15:54.847Z,929.4
2017-05-05T00:16:07.477Z,929.37
2017-05-05T00:16:20.604Z,929.4
2017-05-05T00:16:33.689Z,929.41
2017-05-05T00:16:46.905Z,929.37
2017-05-05T00:16:59.553Z,929.39
2017-05-05T00:17:12.727Z,929.43
2017-05-05T00:17:25.339Z,929.4
2017-05-05T00:17:38.021Z,929.4
2017-05-05T00:17:51.139Z,929.41
2017-05-05T00:18:04.291Z,929.42
2017-05-05T00:18:17.443Z,929.45
2017-05-05T00:18:30.034Z,929.43
2017-05-05T00:18:42.667Z,929.41
2017-05-05T00:18:55.781Z,929.4
2017-05-05T00:19:08.426Z,929.46
2017-05-05T00:19:21.582Z,929.43
2017-05-05T00:19:34.271Z,929.4
2017-05-05T00:19:47.385Z,929.41
2017-05-05T00:20:00.435Z,929.44
2017-05-05T00:20:13.537Z,929.43
2017-05-05T00:20:26.702Z,929.4
2017-05-05T00:20:39.820Z,929.42
2017-05-05T00:20:52.956Z,929.4
2017-05-05T00:21:06.083Z,929.43
2017-05-05T00:21:18.735Z,929.39
2017-05-05T00:21:31.409Z,929.41
2017-05-05T00:21:44.545Z,929.42
2017-05-05T00:21:57.647Z,929.42
2017-05-05T00:22:10.781Z,929.43
2017-05-05T00:22:23.925Z,929.44
2017-05-05T00:22:37.081Z,929.43
2017-05-05T00:22:50.227Z,929.41
2017-05-05T00:23:02.865Z,929.41
2017-05-05T00:23:16.040Z,929.43
2017-05-05T00:23:29.242Z,929.45
2017-05-05T00:23:42.435Z,929.48
2017-05-05T00:23:55.656Z,929.43
2017-05-05T00:24:08.320Z,929.46
2017-05-05T00:24:21.507Z,929.47
2017-05-05T00:24:34.661Z,929.48
2017-05-05T00:24:47.813Z,929.46
2017-05-05T00:25:01.002Z,929.47
2017-05-05T00:25:13.153Z,929.44
2017-05-05T00:25:25.784Z,929.43
2017-05-05T00:25:38.447Z,929.44
2017-05-05T00:25:51.593Z,929.43
2017-05-05T00:26:04.687Z,929.46
2017-05-05T00:26:16.899Z,929.42
2017-05-05T00:26:30.035Z,929.45
2017-05-05T00:26:43.162Z,929.43
2017-05-05T00:26:56.325Z,929.49
2017-05-05T00:27:09.478Z,929.47
2017-05-05T00:27:22.152Z,929.42
2017-05-05T00:27:35.311Z,929.46
2017-05-05T00:27:48.503Z,929.45
2017-05-05T00:28:01.639Z,929.46
2017-05-05T00:28:14.326Z,929.47
2017-05-05T00:28:27.033Z,929.44
2017-05-05T00:28:40.204Z,929.44
2017-05-05T00:28:52.911Z,929.44
2017-05-05T00:29:06.053Z,929.49
2017-05-05T00:29:18.683Z,929.47
2017-05-05T00:29:32.064Z,929.5
2017-05-05T00:29:45.219Z,929.47
2017-05-05T00:29:57.869Z,929.48
2017-05-05T00:30:10.524Z,929.52
2017-05-05T00:30:23.672Z,929.49
2017-05-05T00:30:36.866Z,929.51
2017-05-05T00:30:50.049Z,929.5
2017-05-05T00:31:03.222Z,929.5
2017-05-05T00:31:15.973Z,929.48
2017-05-05T00:31:29.164Z,929.52
2017-05-05T00:31:42.378Z,929.55
2017-05-05T00:31:55.292Z,929.51
2017-05-05T00:32:07.483Z,929.53
2017-05-05T00:32:20.686Z,929.52
2017-05-05T00:32:33.819Z,929.53
2017-05-05T00:32:46.957Z,929.56
2017-05-05T00:33:00.257Z,929.57
2017-05-05T00:33:12.926Z,929.54
2017-05-05T00:33:26.071Z,929.57
2017-05-05T00:33:38.672Z,929.56
2017-05-05T00:33:51.778Z,929.55
2017-05-05T00:34:04.933Z,929.57
2017-05-05T00:34:17.401Z,929.57
2017-05-05T00:34:30.095Z,929.55
2017-05-05T00:34:43.202Z,929.57
2017-05-05T00:34:56.433Z,929.58
2017-05-05T00:35:09.656Z,929.57
2017-05-05T00:35:22.291Z,929.56
2017-05-05T00:35:35.423Z,929.57
2017-05-05T00:35:48.578Z,929.57
2017-05-05T00:36:01.177Z,929.57
2017-05-05T00:36:13.339Z,929.58
2017-05-05T00:36:26.478Z,929.59
2017-05-05T00:36:39.692Z,929.59
2017-05-05T00:36:52.958Z,929.58
2017-05-05T00:37:05.622Z,929.61
2017-05-05T00:37:18.773Z,929.57
2017-05-05T00:37:30.898Z,929.59
2017-05-05T00:37:44.123Z,929.6
2017-05-05T00:37:57.320Z,929.56
2017-05-05T00:38:10.450Z,929.61
2017-05-05T00:38:23.103Z,929.58
2017-05-05T00:38:36.256Z,929.6
2017-05-05T00:38:48.910Z,929.62
2017-05-05T00:39:01.545Z,929.58
2017-05-05T00:39:14.197Z,929.6
2017-05-05T00:39:27.377Z,929.59
2017-05-05T00:39:39.532Z,929.61
2017-05-05T00:39:52.689Z,929.62
2017-05-05T00:40:05.875Z,929.61
2017-05-05T00:40:18.494Z,929.59
2017-05-05T00:40:31.618Z,929.6
2017-05-05T00:40:44.757Z,929.63
2017-05-05T00:40:57.836Z,929.61
2017-05-05T00:41:10.509Z,929.63
2017-05-05T00:41:23.711Z,929.62
2017-05-05T00:41:36.822Z,929.63
2017-05-05T00:41:50.019Z,929.6
2017-05-05T00:42:03.199Z,929.62
2017-05-05T00:42:14.847Z,929.62
2017-05-05T00:42:28.004Z,929.65
2017-05-05T00:42:41.184Z,929.62
2017-05-05T00:42:54.350Z,929.62
2017-05-05T00:43:07.436Z,929.63
2017-05-05T00:43:20.585Z,929.66
2017-05-05T00:43:33.218Z,929.65
2017-05-05T00:43:46.442Z,929.62
2017-05-05T00:43:59.088Z,929.61
2017-05-05T00:44:11.720Z,929.65
2017-05-05T00:44:24.384Z,929.64
2017-05-05T00:44:37.509Z,929.66
2017-05-05T00:44:50.625Z,929.61
2017-05-05T00:45:03.259Z,929.64
2017-05-05T00:45:15.861Z,929.66
2017-05-05T00:45:29.044Z,929.65
2017-05-05T00:45:41.734Z,929.63
2017-05-05T00:45:54.890Z,929.63
2017-05-05T00:46:07.562Z,929.62
2017-05-05T00:46:20.702Z,929.58
2017-05-05T00:46:33.912Z,929.61
2017-05-05T00:46:47.115Z,929.62
2017-05-05T00:46:59.027Z,929.61
2017-05-05T00:47:12.186Z,929.62
2017-05-05T00:47:25.358Z,929.64
2017-05-05T00:47:38.507Z,929.65
2017-05-05T00:47:51.686Z,929.62
2017-05-05T00:48:04.861Z,929.59
2017-05-05T00:48:18.008Z,929.65
2017-05-05T00:48:30.745Z,929.66
2017-05-05T00:48:43.910Z,929.66
2017-05-05T00:48:57.155Z,929.64
2017-05-05T00:49:09.350Z,929.63
2017-05-05T00:49:22.536Z,929.63
2017-05-05T00:49:35.692Z,929.63
2017-05-05T00:49:48.886Z,929.63
2017-05-05T00:50:02.039Z,929.62
2017-05-05T00:50:15.198Z,929.61
2017-05-05T00:50:28.396Z,929.61
2017-05-05T00:50:41.549Z,929.63
2017-05-05T00:50:54.688Z,929.59
2017-05-05T00:51:07.876Z,929.59
2017-05-05T00:51:21.082Z,929.63
2017-05-05T00:51:34.317Z,929.65
2017-05-05T00:51:47.492Z,929.61
2017-05-05T00:52:00.655Z,929.63
2017-05-05T00:52:13.818Z,929.62
2017-05-05T00:52:27.036Z,929.6
2017-05-05T00:52:40.202Z,929.65
2017-05-05T00:52:53.412Z,929.66
2017-05-05T00:53:06.574Z,929.66
2017-05-05T00:53:19.236Z,929.65
2017-05-05T00:53:33.786Z,929.67
2017-05-05T00:53:46.922Z,929.66
2017-05-05T00:54:00.093Z,929.68
2017-05-05T00:54:13.205Z,929.68
2017-05-05T00:54:26.350Z,929.66
2017-05-05T00:54:39.522Z,929.7
2017-05-05T00:54:52.702Z,929.7
2017-05-05T00:55:05.854Z,929.74
2017-05-05T00:55:18.966Z,929.7
2017-05-05T00:55:31.585Z,929.72
2017-05-05T00:55:44.757Z,929.71
2017-05-05T00:55:57.912Z,929.76
2017-05-05T00:56:10.556Z,929.76
2017-05-05T00:56:23.715Z,929.73
2017-05-05T00:56:36.920Z,929.76
2017-05-05T00:56:50.051Z,929.78
2017-05-05T00:57:02.188Z,929.78
2017-05-05T00:57:15.317Z,929.77
2017-05-05T00:57:28.484Z,929.78
2017-05-05T00:57:41.666Z,929.78
2017-05-05T00:57:54.852Z,929.78
2017-05-05T00:58:08.043Z,929.81
2017-05-05T00:58:20.760Z,929.78
2017-05-05T00:58:33.935Z,929.83
2017-05-05T00:58:47.098Z,929.82
2017-05-05T00:59:00.274Z,929.82
2017-05-05T00:59:13.469Z,929.83
2017-05-05T00:59:26.667Z,929.83
2017-05-05T00:59:39.812Z,929.83
2017-05-05T00:59:51.943Z,929.86
2017-05-05T01:00:05.162Z,929.83
2017-05-05T01:00:18.338Z,929.9
2017-05-05T01:00:31.532Z,929.89
2017-05-05T01:00:43.685Z,929.87
2017-05-05T01:00:56.871Z,929.88
2017-05-05T01:01:09.533Z,929.92
2017-05-05T01:01:22.217Z,929.94
2017-05-05T01:01:34.882Z,929.88
2017-05-05T01:01:48.085Z,929.91
2017-05-05T01:02:00.913Z,929.9
2017-05-05T01:02:13.037Z,929.89
2017-05-05T01:02:25.659Z,929.9
2017-05-05T01:02:38.788Z,929.93
2017-05-05T01:02:51.943Z,929.91
2017-05-05T01:03:04.121Z,929.93
2017-05-05T01:03:16.301Z,929.92
2017-05-05T01:03:29.475Z,929.97
2017-05-05T01:03:42.619Z,929.94
2017-05-05T01:03:55.803Z,929.95
2017-05-05T01:04:07.925Z,929.96
2017-05-05T01:04:21.062Z,929.92
2017-05-05T01:04:34.210Z,929.97
2017-05-05T01:04:47.313Z,929.99
2017-05-05T01:04:59.448Z,929.97
2017-05-05T01:05:12.127Z,929.96
2017-05-05T01:05:25.290Z,929.96
2017-05-05T01:05:38.390Z,929.96
2017-05-05T01:05:51.555Z,929.98
2017-05-05T01:06:04.189Z,930
2017-05-05T01:06:17.424Z,929.99
2017-05-05T01:06:30.568Z,929.99
2017-05-05T01:06:43.718Z,929.94
2017-05-05T01:06:55.921Z,930.01
2017-05-05T01:07:09.185Z,929.98
2017-05-05T01:07:22.369Z,929.99
2017-05-05T01:07:35.484Z,930
2017-05-05T01:07:48.168Z,929.97
2017-05-05T01:08:00.813Z,930.02
2017-05-05T01:08:13.481Z,930
2017-05-05T01:08:26.601Z,930.02
2017-05-05T01:08:39.763Z,930.02
2017-05-05T01:08:52.922Z,930.02
2017-05-05T01:09:06.027Z,930.02
2017-05-05T01:09:19.176Z,930.04
2017-05-05T01:09:32.300Z,930.02
2017-05-05T01:09:45.461Z,930.04
2017-05-05T01:09:58.582Z,930.03
2017-05-05T01:10:11.724Z,930.08
2017-05-05T01:10:24.897Z,930.09
2017-05-05T01:10:38.144Z,930.07
2017-05-05T01:10:50.827Z,930.08
2017-05-05T01:11:03.991Z,930.08
2017-05-05T01:11:16.607Z,930.11
2017-05-05T01:11:28.731Z,930.09
2017-05-05T01:11:41.358Z,930.09
2017-05-05T01:11:54.496Z,930.1
2017-05-05T01:12:07.676Z,930.11
2017-05-05T01:12:19.870Z,930.11
2017-05-05T01:12:32.549Z,930.13
2017-05-05T01:12:45.637Z,930.11
2017-05-05T01:12:58.745Z,930.15
2017-05-05T01:13:11.413Z,930.15
2017-05-05T01:13:24.068Z,930.16
2017-05-05T01:13:37.239Z,930.17
2017-05-05T01:13:50.401Z,930.14
2017-05-05T01:14:03.589Z,930.18
2017-05-05T01:14:16.705Z,930.18
2017-05-05T01:14:29.835Z,930.19
2017-05-05T01:14:43.014Z,930.16
2017-05-05T01:14:56.154Z,930.18
2017-05-05T01:15:08.788Z,930.21
2017-05-05T01:15:21.908Z,930.17
2017-05-05T01:15:34.538Z,930.18
2017-05-05T01:15:47.722Z,930.14
2017-05-05T01:16:00.894Z,930.18
2017-05-05T01:16:13.577Z,930.17
2017-05-05T01:16:25.733Z,930.18
2017-05-05T01:16:38.392Z,930.17
2017-05-05T01:16:51.521Z,930.22
2017-05-05T01:17:04.395Z,930.22
2017-05-05T01:17:17.568Z,930.19
2017-05-05T01:17:30.729Z,930.18
2017-05-05T01:17:43.420Z,930.21
2017-05-05T01:17:56.027Z,930.2
2017-05-05T01:18:09.182Z,930.22
2017-05-05T01:18:22.341Z,930.22
2017-05-05T01:18:34.925Z,930.19
2017-05-05T01:18:47.513Z,930.17
2017-05-05T01:19:00.606Z,930.18
2017-05-05T01:19:13.245Z,930.17
2017-05-05T01:19:24.883Z,930.19
2017-05-05T01:19:37.514Z,930.15
2017-05-05T01:19:50.178Z,930.18
2017-05-05T01:20:02.826Z,930.19
2017-05-05T01:20:15.951Z,930.21
2017-05-05T01:20:28.617Z,930.17
2017-05-05T01:20:41.808Z,930.19
2017-05-05T01:20:55.039Z,930.19
2017-05-05T01:21:07.723Z,930.17
2017-05-05T01:21:20.838Z,930.21
2017-05-05T01:21:33.493Z,930.19
2017-05-05T01:21:46.154Z,930.19
2017-05-05T01:21:58.822Z,930.22
2017-05-05T01:22:12.020Z,930.22
2017-05-05T01:22:25.115Z,930.24
2017-05-05T01:22:38.254Z,930.2
2017-05-05T01:22:51.456Z,930.23
2017-05-05T01:23:04.605Z,930.22
2017-05-05T01:23:17.271Z,930.23
2017-05-05T01:23:29.940Z,930.23
2017-05-05T01:23:43.123Z,930.25
2017-05-05T01:23:55.777Z,930.24
2017-05-05T01:24:08.443Z,930.23
2017-05-05T01:24:21.609Z,930.25
2017-05-05T01:24:34.758Z,930.24
2017-05-05T01:24:47.935Z,930.24
2017-05-05T01:25:01.077Z,930.23
2017-05-05T01:25:13.736Z,930.23
2017-05-05T01:25:26.930Z,930.26
2017-05-05T01:25:40.057Z,930.25
2017-05-05T01:25:53.267Z,930.29
2017-05-05T01:26:05.907Z,930.26
2017-05-05T01:26:18.571Z,930.25
2017-05-05T01:26:31.715Z,930.25
2017-05-05T01:26:44.831Z,930.28
2017-05-05T01:26:57.966Z,930.26
2017-05-05T01:27:11.144Z,930.27
2017-05-05T01:27:23.790Z,930.29
2017-05-05T01:27:36.938Z,930.27
2017-05-05T01:27:49.597Z,930.31
2017-05-05T01:28:02.276Z,930.32
2017-05-05T01:28:14.909Z,930.3
2017-05-05T01:28:27.560Z,930.34
2017-05-05T01:28:42.125Z,930.31
2017-05-05T01:28:55.317Z,930.36
2017-05-05T01:29:08.442Z,930.36
2017-05-05T01:29:21.634Z,930.37
2017-05-05T01:29:34.783Z,930.32
2017-05-05T01:29:47.977Z,930.34
2017-05-05T01:30:01.103Z,930.33
2017-05-05T01:30:13.766Z,930.33
2017-05-05T01:30:26.362Z,930.35
2017-05-05T01:30:39.518Z,930.36
2017-05-05T01:30:52.671Z,930.33
2017-05-05T01:31:05.442Z,930.34
2017-05-05T01:31:18.612Z,930.34
2017-05-05T01:31:31.756Z,930.34
2017-05-05T01:31:44.888Z,930.36
2017-05-05T01:31:58.048Z,930.35
2017-05-05T01:32:11.462Z,930.35
2017-05-05T01:32:24.627Z,930.35
2017-05-05T01:32:37.771Z,930.36
2017-05-05T01:32:50.426Z,930.34
2017-05-05T01:33:03.579Z,930.34
2017-05-05T01:33:16.197Z,930.36
2017-05-05T01:33:28.317Z,930.34
2017-05-05T01:33:41.441Z,930.38
2017-05-05T01:33:54.584Z,930.3
2017-05-05T01:34:07.734Z,930.36
2017-05-05T01:34:20.877Z,930.32
2017-05-05T01:34:34.053Z,930.34
2017-05-05T01:34:46.746Z,930.29
2017-05-05T01:34:59.910Z,930.29
2017-05-05T01:35:12.559Z,930.33
2017-05-05T01:35:25.270Z,930.29
2017-05-05T01:35:37.947Z,930.31
2017-05-05T01:35:51.078Z,930.32
2017-05-05T01:36:03.717Z,930.29
2017-05-05T01:36:16.849Z,930.28
2017-05-05T01:36:29.970Z,930.29
2017-05-05T01:36:43.116Z,930.28
2017-05-05T01:36:56.322Z,930.27
2017-05-05T01:37:09.541Z,930.32
2017-05-05T01:37:22.746Z,930.32
2017-05-05T01:37:35.402Z,930.33
2017-05-05T01:37:48.488Z,930.31
2017-05-05T01:38:01.628Z,930.33
2017-05-05T01:38:14.282Z,930.36
2017-05-05T01:38:26.906Z,930.33
2017-05-05T01:38:40.038Z,930.33
2017-05-05T01:38:52.658Z,930.35
2017-05-05T01:39:05.846Z,930.34
2017-05-05T01:39:18.979Z,930.36
2017-05-05T01:39:32.102Z,930.36
2017-05-05T01:39:45.276Z,930.34
2017-05-05T01:39:57.929Z,930.37
2017-05-05T01:40:11.130Z,930.33
2017-05-05T01:40:23.735Z,930.37
2017-05-05T01:40:36.903Z,930.36
2017-05-05T01:40:49.614Z,930.37
2017-05-05T01:41:02.780Z,930.41
2017-05-05T01:41:15.947Z,930.34
2017-05-05T01:41:29.128Z,930.39
2017-05-05T01:41:42.298Z,930.37
2017-05-05T01:41:55.436Z,930.4
2017-05-05T01:42:07.579Z,930.38
2017-05-05T01:42:19.736Z,930.41
2017-05-05T01:42:32.898Z,930.42
2017-05-05T01:42:46.106Z,930.37
2017-05-05T01:42:58.712Z,930.36
2017-05-05T01:43:11.353Z,930.39
2017-05-05T01:43:24.523Z,930.37
2017-05-05T01:43:37.651Z,930.4
2017-05-05T01:43:50.327Z,930.39
2017-05-05T01:44:03.504Z,930.39
2017-05-05T01:44:16.607Z,930.39
2017-05-05T01:44:29.683Z,930.38
2017-05-05T01:44:42.765Z,930.39
2017-05-05T01:44:55.377Z,930.35
2017-05-05T01:45:07.501Z,930.38
2017-05-05T01:45:20.180Z,930.38
2017-05-05T01:45:32.812Z,930.36
2017-05-05T01:45:46.009Z,930.4
2017-05-05T01:45:59.133Z,930.39
2017-05-05T01:46:10.786Z,930.4
2017-05-05T01:46:23.424Z,930.37
2017-05-05T01:46:36.603Z,930.37
2017-05-05T01:46:49.755Z,930.41
2017-05-05T01:47:01.899Z,930.4
2017-05-05T01:47:14.528Z,930.4
2017-05-05T01:47:27.839Z,930.42
2017-05-05T01:47:40.970Z,930.43
2017-05-05T01:47:54.172Z,930.39
2017-05-05T01:48:07.342Z,930.4
2017-05-05T01:48:20.021Z,930.45
2017-05-05T01:48:33.109Z,930.42
2017-05-05T01:48:46.240Z,930.41
2017-05-05T01:48:59.423Z,930.39
2017-05-05T01:49:12.586Z,930.4
2017-05-05T01:49:25.764Z,930.41
2017-05-05T01:49:38.933Z,930.4
2017-05-05T01:49:52.102Z,930.41
2017-05-05T01:50:05.214Z,930.41
2017-05-05T01:50:17.823Z,930.42
2017-05-05T01:50:30.431Z,930.44
2017-05-05T01:50:43.076Z,930.44
2017-05-05T01:50:56.158Z,930.43
2017-05-05T01:51:08.792Z,930.39
2017-05-05T01:51:21.958Z,930.41
2017-05-05T01:51:35.157Z,930.44
2017-05-05T01:51:48.425Z,930.44
2017-05-05T01:52:01.603Z,930.45
2017-05-05T01:52:14.224Z,930.41
2017-05-05T01:52:26.916Z,930.4
2017-05-05T01:52:40.086Z,930.43
2017-05-05T01:52:53.216Z,930.41
2017-05-05T01:53:06.399Z,930.4
2017-05-05T01:53:19.069Z,930.41
2017-05-05T01:53:32.209Z,930.4
2017-05-05T01:53:45.418Z,930.41
2017-05-05T01:53:58.615Z,930.4
2017-05-05T01:54:11.284Z,930.4
2017-05-05T01:54:23.915Z,930.39
2017-05-05T01:54:37.074Z,930.39
2017-05-05T01:54:50.259Z,930.37
2017-05-05T01:55:03.408Z,930.37
2017-05-05T01:55:16.042Z,930.39
2017-05-05T01:55:29.187Z,930.36
2017-05-05T01:55:43.053Z,930.39
2017-05-05T01:55:56.205Z,930.36
2017-05-05T01:56:09.369Z,930.35
2017-05-05T01:56:22.492Z,930.36
2017-05-05T01:56:35.609Z,930.35
2017-05-05T01:56:48.747Z,930.35
2017-05-05T01:57:01.940Z,930.37
2017-05-05T01:57:14.570Z,930.36
2017-05-05T01:57:27.768Z,930.36
2017-05-05T01:57:40.421Z,930.38
2017-05-05T01:57:53.593Z,930.35
2017-05-05T01:58:06.240Z,930.35
2017-05-05T01:58:18.894Z,930.4
2017-05-05T01:58:32.026Z,930.37
2017-05-05T01:58:45.185Z,930.39
2017-05-05T01:58:58.356Z,930.34
2017-05-05T01:59:10.999Z,930.36
2017-05-05T01:59:23.716Z,930.39
2017-05-05T01:59:36.876Z,930.39
2017-05-05T01:59:50.048Z,930.37
2017-05-05T02:00:03.207Z,930.37
2017-05-05T02:00:15.368Z,930.35
2017-05-05T02:00:28.506Z,930.36
2017-05-05T02:00:41.680Z,930.4
2017-05-05T02:00:54.353Z,930.41
2017-05-05T02:01:06.967Z,930.38
2017-05-05T02:01:19.126Z,930.38
2017-05-05T02:01:32.262Z,930.39
2017-05-05T02:01:45.375Z,930.41
2017-05-05T02:01:57.992Z,930.39
2017-05-05T02:02:10.644Z,930.4
2017-05-05T02:02:24.043Z,930.41
2017-05-05T02:02:37.207Z,930.4
2017-05-05T02:02:49.827Z,930.4
2017-05-05T02:03:01.984Z,930.41
2017-05-05T02:03:15.195Z,930.41
2017-05-05T02:03:28.354Z,930.44
2017-05-05T02:03:40.996Z,930.44
2017-05-05T02:03:54.231Z,930.44
2017-05-05T02:04:06.895Z,930.47
2017-05-05T02:04:20.097Z,930.45
2017-05-05T02:04:32.760Z,930.48
2017-05-05T02:04:45.906Z,930.46
2017-05-05T02:04:59.037Z,930.49
2017-05-05T02:05:11.702Z,930.51
2017-05-05T02:05:24.820Z,930.54
2017-05-05T02:05:37.927Z,930.51
2017-05-05T02:05:51.061Z,930.56
2017-05-05T02:06:04.228Z,930.54
2017-05-05T02:06:17.348Z,930.55
2017-05-05T02:06:30.445Z,930.55
2017-05-05T02:06:43.598Z,930.59
2017-05-05T02:06:56.764Z,930.58
2017-05-05T02:07:09.863Z,930.6
2017-05-05T02:07:23.058Z,930.55
2017-05-05T02:07:36.375Z,930.56
2017-05-05T02:07:49.507Z,930.53
2017-05-05T02:08:02.163Z,930.53
2017-05-05T02:08:13.814Z,930.54
2017-05-05T02:08:26.476Z,930.57
2017-05-05T02:08:39.630Z,930.56
2017-05-05T02:08:52.261Z,930.54
2017-05-05T02:09:05.383Z,930.53
2017-05-05T02:09:17.994Z,930.55
2017-05-05T02:09:31.122Z,930.54
2017-05-05T02:09:44.236Z,930.55
2017-05-05T02:09:57.383Z,930.51
2017-05-05T02:10:09.999Z,930.52
2017-05-05T02:10:23.124Z,930.54
2017-05-05T02:10:35.737Z,930.5
2017-05-05T02:10:48.889Z,930.52
2017-05-05T02:11:02.044Z,930.49
2017-05-05T02:11:14.656Z,930.51
2017-05-05T02:11:27.773Z,930.52
2017-05-05T02:11:40.890Z,930.52
2017-05-05T02:11:53.560Z,930.52
2017-05-05T02:12:06.272Z,930.52
2017-05-05T02:12:18.896Z,930.51
2017-05-05T02:12:32.042Z,930.44
2017-05-05T02:12:44.671Z,930.49
2017-05-05T02:12:57.770Z,930.49
2017-05-05T02:13:10.951Z,930.47
2017-05-05T02:13:24.140Z,930.49
2017-05-05T02:13:37.271Z,930.48
2017-05-05T02:13:50.382Z,930.47
2017-05-05T02:14:03.001Z,930.46
2017-05-05T02:14:16.183Z,930.49
2017-05-05T02:14:28.870Z,930.47
2017-05-05T02:14:42.060Z,930.44
2017-05-05T02:14:54.711Z,930.43
2017-05-05T02:15:06.813Z,930.41
2017-05-05T02:15:19.952Z,930.43
2017-05-05T02:15:33.063Z,930.41
2017-05-05T02:15:46.196Z,930.38
2017-05-05T02:15:59.334Z,930.39
2017-05-05T02:16:11.956Z,930.38
2017-05-05T02:16:24.668Z,930.38
2017-05-05T02:16:37.789Z,930.35
2017-05-05T02:16:50.943Z,930.37
2017-05-05T02:17:04.064Z,930.35
2017-05-05T02:17:17.217Z,930.37
2017-05-05T02:17:30.674Z,930.32
2017-05-05T02:17:43.820Z,930.32
2017-05-05T02:17:56.995Z,930.32
2017-05-05T02:18:10.150Z,930.35
2017-05-05T02:18:22.273Z,930.32
2017-05-05T02:18:35.426Z,930.3
2017-05-05T02:18:48.604Z,930.3
2017-05-05T02:19:01.737Z,930.32
2017-05-05T02:19:14.456Z,930.29
2017-05-05T02:19:27.617Z,930.24
2017-05-05T02:19:41.494Z,930.28
2017-05-05T02:19:54.675Z,930.27
2017-05-05T02:20:07.856Z,930.29
2017-05-05T02:20:21.021Z,930.24
2017-05-05T02:20:34.150Z,930.27
2017-05-05T02:20:47.313Z,930.23
2017-05-05T02:20:59.991Z,930.23
2017-05-05T02:21:13.155Z,930.27
2017-05-05T02:21:25.807Z,930.28
2017-05-05T02:21:38.419Z,930.25
2017-05-05T02:21:51.563Z,930.22
2017-05-05T02:22:04.703Z,930.18
2017-05-05T02:22:16.868Z,930.21
2017-05-05T02:22:29.997Z,930.19
2017-05-05T02:22:43.116Z,930.19
2017-05-05T02:22:56.334Z,930.22
2017-05-05T02:23:09.547Z,930.2
2017-05-05T02:23:22.687Z,930.15
2017-05-05T02:23:35.860Z,930.16
2017-05-05T02:23:49.031Z,930.18
2017-05-05T02:24:02.237Z,930.17
2017-05-05T02:24:15.396Z,930.16
2017-05-05T02:24:28.559Z,930.18
2017-05-05T02:24:41.742Z,930.15
2017-05-05T02:24:54.900Z,930.14
2017-05-05T02:25:07.540Z,930.13
2017-05-05T02:25:20.203Z,930.08
2017-05-05T02:25:32.854Z,930.11
2017-05-05T02:25:45.498Z,930.07
2017-05-05T02:25:58.106Z,930.08
2017-05-05T02:26:10.729Z,930.08
2017-05-05T02:26:23.937Z,930.06
2017-05-05T02:26:37.056Z,930.05
2017-05-05T02:26:50.194Z,930.09
2017-05-05T02:27:03.388Z,930.04
2017-05-05T02:27:16.035Z,930.01
2017-05-05T02:27:29.126Z,930.01
2017-05-05T02:27:41.772Z,930.04
2017-05-05T02:27:54.971Z,930.02
2017-05-05T02:28:08.203Z,930
2017-05-05T02:28:19.824Z,929.96
2017-05-05T02:28:32.948Z,930
2017-05-05T02:28:46.127Z,929.98
2017-05-05T02:28:59.302Z,929.99
2017-05-05T02:29:12.414Z,929.98
2017-05-05T02:29:25.537Z,929.98
2017-05-05T02:29:38.187Z,929.98
2017-05-05T02:29:51.345Z,929.99
2017-05-05T02:30:04.526Z,929.91
2017-05-05T02:30:17.679Z,929.97
2017-05-05T02:30:30.835Z,929.97
2017-05-05T02:30:44.006Z,929.96
2017-05-05T02:30:56.198Z,929.97
2017-05-05T02:31:09.309Z,930
2017-05-05T02:31:21.942Z,929.96
2017-05-05T02:31:35.107Z,929.97
2017-05-05T02:31:47.776Z,929.96
2017-05-05T02:32:00.906Z,929.99
2017-05-05T02:32:13.016Z,929.97
2017-05-05T02:32:25.645Z,929.98
2017-05-05T02:32:39.137Z,929.98
2017-05-05T02:32:52.343Z,929.98
2017-05-05T02:33:05.034Z,929.98
2017-05-05T02:33:17.691Z,929.98
2017-05-05T02:33:30.850Z,929.95
2017-05-05T02:33:43.988Z,929.95
2017-05-05T02:33:57.133Z,929.97
2017-05-05T02:34:10.318Z,929.95
2017-05-05T02:34:23.471Z,929.93
2017-05-05T02:34:36.690Z,929.96
2017-05-05T02:34:49.866Z,929.96
2017-05-05T02:35:03.017Z,929.96
2017-05-05T02:35:15.630Z,929.97
2017-05-05T02:35:28.785Z,929.97
2017-05-05T02:35:41.908Z,929.98
2017-05-05T02:35:54.533Z,929.97
2017-05-05T02:36:07.688Z,929.99
2017-05-05T02:36:19.278Z,930.01
2017-05-05T02:36:32.379Z,930.01
2017-05-05T02:36:45.517Z,930
2017-05-05T02:36:58.688Z,929.99
2017-05-05T02:37:11.813Z,929.97
2017-05-05T02:37:24.457Z,929.94
2017-05-05T02:37:37.630Z,929.96
2017-05-05T02:37:50.890Z,929.98
2017-05-05T02:38:04.079Z,929.97
2017-05-05T02:38:17.259Z,929.98
2017-05-05T02:38:30.393Z,929.99
2017-05-05T02:38:43.574Z,929.97
2017-05-05T02:38:56.367Z,929.92
2017-05-05T02:39:08.286Z,929.94
2017-05-05T02:39:21.413Z,929.96
2017-05-05T02:39:34.567Z,929.94
2017-05-05T02:39:47.653Z,929.95
2017-05-05T02:40:00.807Z,929.94
2017-05-05T02:40:12.910Z,929.96
2017-05-05T02:40:25.559Z,929.94
2017-05-05T02:40:38.721Z,929.92
2017-05-05T02:40:51.921Z,929.96
2017-05-05T02:41:04.558Z,929.97
2017-05-05T02:41:17.269Z,929.94
2017-05-05T02:41:29.904Z,929.93
2017-05-05T02:41:43.034Z,929.95
2017-05-05T02:41:56.202Z,929.93
2017-05-05T02:42:08.832Z,929.96